sensor_id;sensor_type;location;lat;lon;timestamp;P1;durP1;ratioP1;P2;durP2;ratioP2
68866;SDS011;56451;44.804;20.476;2023-08-06T00:00:19;9.15;;;7.07;;
68866;SDS011;56451;44.804;20.476;2023-08-06T00:02:45;9.32;;;7.55;;
68866;SDS011;56451;44.804;20.476;2023-08-06T00:05:11;8.27;;;7.43;;
68866;SDS011;56451;44.804;20.476;2023-08-06T00:07:37;8.35;;;7.40;;
68866;SDS011;56451;44.804;20.476;2023-08-06T00:10:03;9.40;;;8.45;;
68866;SDS011;56451;44.804;20.476;2023-08-06T00:12:29;10.40;;;8.90;;
68866;SDS011;56451;44.804;20.476;2023-08-06T00:14:55;9.90;;;8.90;;
68866;SDS011;56451;44.804;20.476;2023-08-06T00:17:21;12.25;;;10.10;;
68866;SDS011;56451;44.804;20.476;2023-08-06T00:19:47;13.88;;;10.02;;
68866;SDS011;56451;44.804;20.476;2023-08-06T00:22:13;12.20;;;9.88;;
68866;SDS011;56451;44.804;20.476;2023-08-06T00:24:39;12.37;;;9.93;;
68866;SDS011;56451;44.804;20.476;2023-08-06T00:27:05;12.40;;;9.88;;
68866;SDS011;56451;44.804;20.476;2023-08-06T00:29:31;12.82;;;10.15;;
68866;SDS011;56451;44.804;20.476;2023-08-06T00:31:57;11.97;;;9.70;;
68866;SDS011;56451;44.804;20.476;2023-08-06T00:34:24;13.45;;;10.35;;
68866;SDS011;56451;44.804;20.476;2023-08-06T00:36:50;13.65;;;11.32;;
68866;SDS011;56451;44.804;20.476;2023-08-06T00:39:16;13.80;;;10.52;;
68866;SDS011;56451;44.804;20.476;2023-08-06T00:41:42;15.27;;;11.60;;
68866;SDS011;56451;44.804;20.476;2023-08-06T00:44:08;13.23;;;11.40;;
68866;SDS011;56451;44.804;20.476;2023-08-06T00:46:34;15.88;;;12.20;;
68866;SDS011;56451;44.804;20.476;2023-08-06T00:49:00;15.95;;;12.80;;
68866;SDS011;56451;44.804;20.476;2023-08-06T00:51:26;16.38;;;12.63;;
68866;SDS011;56451;44.804;20.476;2023-08-06T00:53:52;15.90;;;12.83;;
68866;SDS011;56451;44.804;20.476;2023-08-06T00:56:18;16.58;;;12.13;;
68866;SDS011;56451;44.804;20.476;2023-08-06T00:58:46;17.98;;;13.18;;
68866;SDS011;56451;44.804;20.476;2023-08-06T01:01:12;15.70;;;13.27;;
68866;SDS011;56451;44.804;20.476;2023-08-06T01:03:38;17.40;;;12.33;;
68866;SDS011;56451;44.804;20.476;2023-08-06T01:06:05;14.13;;;11.85;;
68866;SDS011;56451;44.804;20.476;2023-08-06T01:11:27;17.48;;;11.88;;
68866;SDS011;56451;44.804;20.476;2023-08-06T01:14:06;14.70;;;11.52;;
68866;SDS011;56451;44.804;20.476;2023-08-06T01:16:38;16.47;;;12.07;;
68866;SDS011;56451;44.804;20.476;2023-08-06T01:19:15;16.30;;;11.82;;
68866;SDS011;56451;44.804;20.476;2023-08-06T01:21:44;15.93;;;11.15;;
68866;SDS011;56451;44.804;20.476;2023-08-06T01:24:10;13.48;;;10.52;;
68866;SDS011;56451;44.804;20.476;2023-08-06T01:26:39;14.35;;;10.35;;
68866;SDS011;56451;44.804;20.476;2023-08-06T01:29:11;12.73;;;9.60;;
68866;SDS011;56451;44.804;20.476;2023-08-06T01:31:43;11.27;;;9.20;;
68866;SDS011;56451;44.804;20.476;2023-08-06T01:34:17;12.15;;;9.38;;
68866;SDS011;56451;44.804;20.476;2023-08-06T01:36:45;12.73;;;9.48;;
68866;SDS011;56451;44.804;20.476;2023-08-06T01:39:11;11.03;;;8.90;;
68866;SDS011;56451;44.804;20.476;2023-08-06T01:41:37;10.18;;;8.23;;
68866;SDS011;56451;44.804;20.476;2023-08-06T01:44:03;11.65;;;8.40;;
68866;SDS011;56451;44.804;20.476;2023-08-06T01:46:30;11.03;;;9.27;;
68866;SDS011;56451;44.804;20.476;2023-08-06T01:48:56;11.73;;;8.77;;
68866;SDS011;56451;44.804;20.476;2023-08-06T01:51:22;9.20;;;8.20;;
68866;SDS011;56451;44.804;20.476;2023-08-06T01:53:48;9.48;;;7.75;;
68866;SDS011;56451;44.804;20.476;2023-08-06T01:56:14;13.07;;;8.23;;
68866;SDS011;56451;44.804;20.476;2023-08-06T01:58:40;10.18;;;8.70;;
68866;SDS011;56451;44.804;20.476;2023-08-06T02:01:06;13.30;;;8.30;;
68866;SDS011;56451;44.804;20.476;2023-08-06T02:03:31;9.27;;;8.20;;
68866;SDS011;56451;44.804;20.476;2023-08-06T02:05:57;9.20;;;7.60;;
68866;SDS011;56451;44.804;20.476;2023-08-06T02:08:23;8.65;;;7.53;;
68866;SDS011;56451;44.804;20.476;2023-08-06T02:10:49;11.00;;;7.53;;
68866;SDS011;56451;44.804;20.476;2023-08-06T02:13:15;9.50;;;7.45;;
68866;SDS011;56451;44.804;20.476;2023-08-06T02:15:42;9.43;;;7.78;;
68866;SDS011;56451;44.804;20.476;2023-08-06T02:18:09;7.83;;;6.70;;
68866;SDS011;56451;44.804;20.476;2023-08-06T02:20:35;8.35;;;6.10;;
68866;SDS011;56451;44.804;20.476;2023-08-06T02:23:01;9.15;;;6.75;;
68866;SDS011;56451;44.804;20.476;2023-08-06T02:25:27;9.00;;;7.07;;
68866;SDS011;56451;44.804;20.476;2023-08-06T02:27:53;8.40;;;6.67;;
68866;SDS011;56451;44.804;20.476;2023-08-06T02:33:25;7.88;;;6.60;;
68866;SDS011;56451;44.804;20.476;2023-08-06T02:35:51;8.98;;;5.80;;
68866;SDS011;56451;44.804;20.476;2023-08-06T02:38:16;7.40;;;5.90;;
68866;SDS011;56451;44.804;20.476;2023-08-06T02:40:46;7.40;;;5.80;;
68866;SDS011;56451;44.804;20.476;2023-08-06T02:43:12;6.47;;;5.40;;
68866;SDS011;56451;44.804;20.476;2023-08-06T02:45:39;7.20;;;5.35;;
68866;SDS011;56451;44.804;20.476;2023-08-06T02:48:05;6.55;;;5.32;;
68866;SDS011;56451;44.804;20.476;2023-08-06T02:50:37;7.77;;;5.40;;
68866;SDS011;56451;44.804;20.476;2023-08-06T02:53:03;5.63;;;4.80;;
68866;SDS011;56451;44.804;20.476;2023-08-06T02:55:29;6.72;;;5.00;;
68866;SDS011;56451;44.804;20.476;2023-08-06T02:57:56;5.90;;;4.60;;
68866;SDS011;56451;44.804;20.476;2023-08-06T03:00:22;6.13;;;4.47;;
68866;SDS011;56451;44.804;20.476;2023-08-06T03:02:49;6.15;;;4.50;;
68866;SDS011;56451;44.804;20.476;2023-08-06T03:05:28;4.60;;;3.90;;
68866;SDS011;56451;44.804;20.476;2023-08-06T03:07:54;5.95;;;4.30;;
68866;SDS011;56451;44.804;20.476;2023-08-06T03:10:24;6.15;;;4.40;;
68866;SDS011;56451;44.804;20.476;2023-08-06T03:12:53;5.50;;;4.03;;
68866;SDS011;56451;44.804;20.476;2023-08-06T03:15:20;6.88;;;3.83;;
68866;SDS011;56451;44.804;20.476;2023-08-06T03:17:47;5.22;;;3.45;;
68866;SDS011;56451;44.804;20.476;2023-08-06T03:20:15;4.60;;;3.25;;
68866;SDS011;56451;44.804;20.476;2023-08-06T03:22:41;3.95;;;3.10;;
68866;SDS011;56451;44.804;20.476;2023-08-06T03:25:08;4.97;;;3.33;;
68866;SDS011;56451;44.804;20.476;2023-08-06T03:27:35;5.22;;;2.95;;
68866;SDS011;56451;44.804;20.476;2023-08-06T03:30:01;3.22;;;2.60;;
68866;SDS011;56451;44.804;20.476;2023-08-06T03:32:29;3.78;;;2.70;;
68866;SDS011;56451;44.804;20.476;2023-08-06T03:34:55;3.57;;;2.90;;
68866;SDS011;56451;44.804;20.476;2023-08-06T03:37:25;4.55;;;3.20;;
68866;SDS011;56451;44.804;20.476;2023-08-06T03:39:51;5.40;;;3.30;;
68866;SDS011;56451;44.804;20.476;2023-08-06T03:42:17;4.60;;;2.83;;
68866;SDS011;56451;44.804;20.476;2023-08-06T03:44:42;4.30;;;3.17;;
68866;SDS011;56451;44.804;20.476;2023-08-06T03:47:09;6.22;;;2.72;;
68866;SDS011;56451;44.804;20.476;2023-08-06T03:49:35;4.35;;;3.08;;
68866;SDS011;56451;44.804;20.476;2023-08-06T03:52:03;8.43;;;3.08;;
68866;SDS011;56451;44.804;20.476;2023-08-06T03:54:29;5.53;;;3.40;;
68866;SDS011;56451;44.804;20.476;2023-08-06T03:56:55;5.63;;;2.90;;
68866;SDS011;56451;44.804;20.476;2023-08-06T03:59:21;4.28;;;3.20;;
68866;SDS011;56451;44.804;20.476;2023-08-06T04:01:47;4.38;;;3.58;;
68866;SDS011;56451;44.804;20.476;2023-08-06T04:04:13;4.93;;;3.47;;
68866;SDS011;56451;44.804;20.476;2023-08-06T04:06:39;4.50;;;3.20;;
68866;SDS011;56451;44.804;20.476;2023-08-06T04:09:05;4.65;;;3.35;;
68866;SDS011;56451;44.804;20.476;2023-08-06T04:11:31;4.23;;;3.20;;
68866;SDS011;56451;44.804;20.476;2023-08-06T04:13:57;5.72;;;3.45;;
68866;SDS011;56451;44.804;20.476;2023-08-06T04:16:24;7.22;;;3.30;;
68866;SDS011;56451;44.804;20.476;2023-08-06T04:18:51;4.53;;;3.00;;
68866;SDS011;56451;44.804;20.476;2023-08-06T04:21:19;4.87;;;3.37;;
68866;SDS011;56451;44.804;20.476;2023-08-06T04:23:46;3.75;;;2.78;;
68866;SDS011;56451;44.804;20.476;2023-08-06T04:26:12;6.30;;;3.75;;
68866;SDS011;56451;44.804;20.476;2023-08-06T04:28:38;5.68;;;3.28;;
68866;SDS011;56451;44.804;20.476;2023-08-06T04:31:04;4.25;;;2.97;;
68866;SDS011;56451;44.804;20.476;2023-08-06T04:33:32;4.83;;;3.23;;
68866;SDS011;56451;44.804;20.476;2023-08-06T04:36:02;4.22;;;2.85;;
68866;SDS011;56451;44.804;20.476;2023-08-06T04:38:28;5.57;;;2.97;;
68866;SDS011;56451;44.804;20.476;2023-08-06T04:40:55;3.63;;;2.92;;
68866;SDS011;56451;44.804;20.476;2023-08-06T04:43:22;5.07;;;3.10;;
68866;SDS011;56451;44.804;20.476;2023-08-06T04:45:49;4.50;;;3.20;;
68866;SDS011;56451;44.804;20.476;2023-08-06T04:48:16;5.13;;;3.20;;
68866;SDS011;56451;44.804;20.476;2023-08-06T04:50:46;4.13;;;3.50;;
68866;SDS011;56451;44.804;20.476;2023-08-06T04:53:13;4.80;;;3.70;;
68866;SDS011;56451;44.804;20.476;2023-08-06T04:55:39;5.15;;;3.22;;
68866;SDS011;56451;44.804;20.476;2023-08-06T04:58:05;4.53;;;2.70;;
68866;SDS011;56451;44.804;20.476;2023-08-06T05:00:31;5.28;;;3.00;;
68866;SDS011;56451;44.804;20.476;2023-08-06T05:02:59;7.50;;;2.88;;
68866;SDS011;56451;44.804;20.476;2023-08-06T05:05:26;5.35;;;3.00;;
68866;SDS011;56451;44.804;20.476;2023-08-06T05:07:53;4.03;;;3.30;;
68866;SDS011;56451;44.804;20.476;2023-08-06T05:10:20;3.43;;;2.93;;
68866;SDS011;56451;44.804;20.476;2023-08-06T05:12:46;4.70;;;3.35;;
68866;SDS011;56451;44.804;20.476;2023-08-06T05:15:12;5.57;;;3.13;;
68866;SDS011;56451;44.804;20.476;2023-08-06T05:17:38;4.57;;;3.63;;
68866;SDS011;56451;44.804;20.476;2023-08-06T05:20:04;5.20;;;3.58;;
68866;SDS011;56451;44.804;20.476;2023-08-06T05:22:30;5.30;;;4.05;;
68866;SDS011;56451;44.804;20.476;2023-08-06T05:24:56;5.03;;;3.83;;
68866;SDS011;56451;44.804;20.476;2023-08-06T05:27:22;4.65;;;3.60;;
68866;SDS011;56451;44.804;20.476;2023-08-06T05:29:48;5.45;;;4.40;;
68866;SDS011;56451;44.804;20.476;2023-08-06T05:32:14;6.88;;;4.80;;
68866;SDS011;56451;44.804;20.476;2023-08-06T05:34:40;5.20;;;4.10;;
68866;SDS011;56451;44.804;20.476;2023-08-06T05:37:07;6.05;;;4.75;;
68866;SDS011;56451;44.804;20.476;2023-08-06T05:39:32;6.15;;;5.55;;
68866;SDS011;56451;44.804;20.476;2023-08-06T05:41:58;8.63;;;5.37;;
68866;SDS011;56451;44.804;20.476;2023-08-06T05:44:24;6.25;;;5.32;;
68866;SDS011;56451;44.804;20.476;2023-08-06T05:46:50;8.73;;;6.43;;
68866;SDS011;56451;44.804;20.476;2023-08-06T05:49:17;7.63;;;6.37;;
68866;SDS011;56451;44.804;20.476;2023-08-06T05:51:42;6.90;;;6.00;;
68866;SDS011;56451;44.804;20.476;2023-08-06T05:54:09;12.52;;;8.68;;
68866;SDS011;56451;44.804;20.476;2023-08-06T05:56:34;9.60;;;8.05;;
68866;SDS011;56451;44.804;20.476;2023-08-06T05:59:01;11.00;;;8.70;;
68866;SDS011;56451;44.804;20.476;2023-08-06T06:01:27;10.63;;;9.32;;
68866;SDS011;56451;44.804;20.476;2023-08-06T06:03:53;12.38;;;9.23;;
68866;SDS011;56451;44.804;20.476;2023-08-06T06:06:20;11.27;;;8.80;;
68866;SDS011;56451;44.804;20.476;2023-08-06T06:08:46;13.60;;;8.93;;
68866;SDS011;56451;44.804;20.476;2023-08-06T06:11:12;11.57;;;9.18;;
68866;SDS011;56451;44.804;20.476;2023-08-06T06:13:37;12.35;;;9.77;;
68866;SDS011;56451;44.804;20.476;2023-08-06T06:16:03;11.70;;;9.73;;
68866;SDS011;56451;44.804;20.476;2023-08-06T06:18:30;13.73;;;10.15;;
68866;SDS011;56451;44.804;20.476;2023-08-06T06:20:56;11.65;;;10.13;;
68866;SDS011;56451;44.804;20.476;2023-08-06T06:23:22;12.65;;;10.48;;
68866;SDS011;56451;44.804;20.476;2023-08-06T06:25:48;14.00;;;11.53;;
68866;SDS011;56451;44.804;20.476;2023-08-06T06:28:17;12.15;;;10.85;;
68866;SDS011;56451;44.804;20.476;2023-08-06T06:30:43;14.45;;;11.20;;
68866;SDS011;56451;44.804;20.476;2023-08-06T06:33:09;12.95;;;10.90;;
68866;SDS011;56451;44.804;20.476;2023-08-06T06:35:36;13.03;;;10.83;;
68866;SDS011;56451;44.804;20.476;2023-08-06T06:38:03;13.98;;;11.13;;
68866;SDS011;56451;44.804;20.476;2023-08-06T06:40:29;14.95;;;11.35;;
68866;SDS011;56451;44.804;20.476;2023-08-06T06:42:55;13.37;;;10.90;;
68866;SDS011;56451;44.804;20.476;2023-08-06T06:45:21;13.25;;;10.82;;
68866;SDS011;56451;44.804;20.476;2023-08-06T06:47:46;12.75;;;10.45;;
68866;SDS011;56451;44.804;20.476;2023-08-06T06:50:13;12.97;;;9.93;;
68866;SDS011;56451;44.804;20.476;2023-08-06T06:52:38;13.48;;;9.82;;
68866;SDS011;56451;44.804;20.476;2023-08-06T06:55:04;13.25;;;10.85;;
68866;SDS011;56451;44.804;20.476;2023-08-06T06:57:30;13.77;;;10.90;;
68866;SDS011;56451;44.804;20.476;2023-08-06T06:59:56;15.27;;;10.63;;
68866;SDS011;56451;44.804;20.476;2023-08-06T07:02:22;13.20;;;10.10;;
68866;SDS011;56451;44.804;20.476;2023-08-06T07:04:49;11.20;;;9.32;;
68866;SDS011;56451;44.804;20.476;2023-08-06T07:07:15;12.03;;;9.87;;
68866;SDS011;56451;44.804;20.476;2023-08-06T07:09:41;11.80;;;9.38;;
68866;SDS011;56451;44.804;20.476;2023-08-06T07:12:07;12.05;;;9.23;;
68866;SDS011;56451;44.804;20.476;2023-08-06T07:14:33;12.10;;;9.37;;
68866;SDS011;56451;44.804;20.476;2023-08-06T07:16:59;14.05;;;9.60;;
68866;SDS011;56451;44.804;20.476;2023-08-06T07:19:24;10.23;;;9.13;;
68866;SDS011;56451;44.804;20.476;2023-08-06T07:21:50;11.02;;;8.88;;
68866;SDS011;56451;44.804;20.476;2023-08-06T07:24:16;11.63;;;8.93;;
68866;SDS011;56451;44.804;20.476;2023-08-06T07:26:42;13.50;;;9.95;;
68866;SDS011;56451;44.804;20.476;2023-08-06T07:29:08;11.93;;;9.13;;
68866;SDS011;56451;44.804;20.476;2023-08-06T07:31:34;11.33;;;9.40;;
68866;SDS011;56451;44.804;20.476;2023-08-06T07:34:00;11.30;;;9.35;;
68866;SDS011;56451;44.804;20.476;2023-08-06T07:36:26;12.40;;;10.13;;
68866;SDS011;56451;44.804;20.476;2023-08-06T07:38:52;12.02;;;9.15;;
68866;SDS011;56451;44.804;20.476;2023-08-06T07:41:22;12.17;;;9.90;;
68866;SDS011;56451;44.804;20.476;2023-08-06T07:43:48;11.57;;;9.25;;
68866;SDS011;56451;44.804;20.476;2023-08-06T07:46:14;10.02;;;8.88;;
68866;SDS011;56451;44.804;20.476;2023-08-06T07:48:40;10.88;;;8.80;;
68866;SDS011;56451;44.804;20.476;2023-08-06T07:51:07;9.95;;;8.85;;
68866;SDS011;56451;44.804;20.476;2023-08-06T07:53:32;8.97;;;7.90;;
68866;SDS011;56451;44.804;20.476;2023-08-06T07:55:58;9.15;;;8.23;;
68866;SDS011;56451;44.804;20.476;2023-08-06T07:58:27;8.70;;;7.57;;
68866;SDS011;56451;44.804;20.476;2023-08-06T08:00:54;9.25;;;7.18;;
68866;SDS011;56451;44.804;20.476;2023-08-06T08:03:20;8.37;;;6.80;;
68866;SDS011;56451;44.804;20.476;2023-08-06T08:05:46;7.70;;;6.90;;
68866;SDS011;56451;44.804;20.476;2023-08-06T08:08:12;8.30;;;6.47;;
68866;SDS011;56451;44.804;20.476;2023-08-06T08:10:38;6.80;;;6.10;;
68866;SDS011;56451;44.804;20.476;2023-08-06T08:13:04;5.80;;;5.20;;
68866;SDS011;56451;44.804;20.476;2023-08-06T08:15:31;5.10;;;4.00;;
68866;SDS011;56451;44.804;20.476;2023-08-06T08:17:58;4.63;;;3.22;;
68866;SDS011;56451;44.804;20.476;2023-08-06T08:20:24;4.85;;;3.50;;
68866;SDS011;56451;44.804;20.476;2023-08-06T08:22:50;2.67;;;2.40;;
68866;SDS011;56451;44.804;20.476;2023-08-06T08:25:16;3.30;;;2.65;;
68866;SDS011;56451;44.804;20.476;2023-08-06T08:27:42;2.58;;;2.00;;
68866;SDS011;56451;44.804;20.476;2023-08-06T08:30:08;4.70;;;1.88;;
68866;SDS011;56451;44.804;20.476;2023-08-06T08:32:34;2.33;;;2.03;;
68866;SDS011;56451;44.804;20.476;2023-08-06T08:35:00;3.95;;;2.47;;
68866;SDS011;56451;44.804;20.476;2023-08-06T08:37:26;2.83;;;1.95;;
68866;SDS011;56451;44.804;20.476;2023-08-06T08:39:52;4.47;;;1.60;;
68866;SDS011;56451;44.804;20.476;2023-08-06T08:42:19;2.60;;;1.80;;
68866;SDS011;56451;44.804;20.476;2023-08-06T08:44:46;3.05;;;1.50;;
68866;SDS011;56451;44.804;20.476;2023-08-06T08:47:12;1.90;;;1.27;;
68866;SDS011;56451;44.804;20.476;2023-08-06T08:49:38;3.03;;;1.30;;
68866;SDS011;56451;44.804;20.476;2023-08-06T08:52:04;2.93;;;1.80;;
68866;SDS011;56451;44.804;20.476;2023-08-06T08:54:32;2.35;;;1.50;;
68866;SDS011;56451;44.804;20.476;2023-08-06T08:56:59;4.22;;;1.80;;
68866;SDS011;56451;44.804;20.476;2023-08-06T08:59:25;4.07;;;1.67;;
68866;SDS011;56451;44.804;20.476;2023-08-06T09:01:52;2.75;;;1.65;;
68866;SDS011;56451;44.804;20.476;2023-08-06T09:04:20;2.40;;;1.73;;
68866;SDS011;56451;44.804;20.476;2023-08-06T09:06:49;3.03;;;1.65;;
68866;SDS011;56451;44.804;20.476;2023-08-06T09:09:26;5.20;;;1.80;;
68866;SDS011;56451;44.804;20.476;2023-08-06T09:11:55;2.65;;;1.88;;
68866;SDS011;56451;44.804;20.476;2023-08-06T09:14:27;3.85;;;1.77;;
68866;SDS011;56451;44.804;20.476;2023-08-06T09:16:54;2.57;;;1.47;;
68866;SDS011;56451;44.804;20.476;2023-08-06T09:19:20;2.25;;;1.75;;
68866;SDS011;56451;44.804;20.476;2023-08-06T09:21:46;2.78;;;2.08;;
68866;SDS011;56451;44.804;20.476;2023-08-06T09:24:15;3.42;;;1.80;;
68866;SDS011;56451;44.804;20.476;2023-08-06T09:26:43;1.93;;;1.70;;
68866;SDS011;56451;44.804;20.476;2023-08-06T09:29:10;2.28;;;1.92;;
68866;SDS011;56451;44.804;20.476;2023-08-06T09:34:11;2.13;;;1.60;;
68866;SDS011;56451;44.804;20.476;2023-08-06T09:36:48;3.40;;;1.83;;
68866;SDS011;56451;44.804;20.476;2023-08-06T09:39:17;2.77;;;1.53;;
68866;SDS011;56451;44.804;20.476;2023-08-06T09:41:45;2.22;;;1.70;;
68866;SDS011;56451;44.804;20.476;2023-08-06T09:47:03;2.67;;;1.70;;
68866;SDS011;56451;44.804;20.476;2023-08-06T09:51:58;2.70;;;1.60;;
68866;SDS011;56451;44.804;20.476;2023-08-06T09:54:26;3.03;;;1.50;;
68866;SDS011;56451;44.804;20.476;2023-08-06T09:56:53;2.58;;;1.60;;
68866;SDS011;56451;44.804;20.476;2023-08-06T09:59:20;2.42;;;1.60;;
68866;SDS011;56451;44.804;20.476;2023-08-06T10:01:47;1.95;;;1.60;;
68866;SDS011;56451;44.804;20.476;2023-08-06T10:04:14;2.50;;;1.80;;
68866;SDS011;56451;44.804;20.476;2023-08-06T10:06:46;3.90;;;1.60;;
68866;SDS011;56451;44.804;20.476;2023-08-06T10:09:13;2.97;;;1.75;;
68866;SDS011;56451;44.804;20.476;2023-08-06T10:11:39;3.83;;;1.63;;
68866;SDS011;56451;44.804;20.476;2023-08-06T10:14:15;3.10;;;1.63;;
68866;SDS011;56451;44.804;20.476;2023-08-06T10:16:45;4.90;;;1.60;;
68866;SDS011;56451;44.804;20.476;2023-08-06T10:19:12;2.20;;;1.38;;
68866;SDS011;56451;44.804;20.476;2023-08-06T10:21:41;1.42;;;1.13;;
68866;SDS011;56451;44.804;20.476;2023-08-06T10:24:07;3.13;;;1.50;;
68866;SDS011;56451;44.804;20.476;2023-08-06T10:26:35;1.45;;;0.98;;
68866;SDS011;56451;44.804;20.476;2023-08-06T10:29:21;1.30;;;1.20;;
68866;SDS011;56451;44.804;20.476;2023-08-06T10:32:04;3.05;;;1.10;;
68866;SDS011;56451;44.804;20.476;2023-08-06T10:37:22;4.50;;;1.30;;
68866;SDS011;56451;44.804;20.476;2023-08-06T10:39:49;1.63;;;1.25;;
68866;SDS011;56451;44.804;20.476;2023-08-06T10:42:22;1.57;;;1.10;;
68866;SDS011;56451;44.804;20.476;2023-08-06T10:45:11;1.77;;;1.20;;
68866;SDS011;56451;44.804;20.476;2023-08-06T10:47:41;2.15;;;1.40;;
68866;SDS011;56451;44.804;20.476;2023-08-06T10:50:10;7.30;;;1.60;;
68866;SDS011;56451;44.804;20.476;2023-08-06T10:52:42;5.03;;;1.40;;
68866;SDS011;56451;44.804;20.476;2023-08-06T10:55:12;5.00;;;1.30;;
68866;SDS011;56451;44.804;20.476;2023-08-06T10:57:40;1.83;;;1.40;;
68866;SDS011;56451;44.804;20.476;2023-08-06T11:00:07;2.50;;;1.27;;
68866;SDS011;56451;44.804;20.476;2023-08-06T11:02:34;3.72;;;1.33;;
68866;SDS011;56451;44.804;20.476;2023-08-06T11:05:07;2.67;;;1.40;;
68866;SDS011;56451;44.804;20.476;2023-08-06T11:07:34;1.33;;;1.23;;
68866;SDS011;56451;44.804;20.476;2023-08-06T11:10:05;2.13;;;1.67;;
68866;SDS011;56451;44.804;20.476;2023-08-06T11:12:32;1.70;;;1.27;;
68866;SDS011;56451;44.804;20.476;2023-08-06T11:14:59;3.80;;;1.45;;
68866;SDS011;56451;44.804;20.476;2023-08-06T11:17:29;2.10;;;1.33;;
68866;SDS011;56451;44.804;20.476;2023-08-06T11:20:00;1.87;;;1.37;;
68866;SDS011;56451;44.804;20.476;2023-08-06T11:22:27;3.10;;;1.17;;
68866;SDS011;56451;44.804;20.476;2023-08-06T11:24:55;1.95;;;1.10;;
68866;SDS011;56451;44.804;20.476;2023-08-06T11:27:21;1.27;;;1.10;;
68866;SDS011;56451;44.804;20.476;2023-08-06T11:33:11;2.10;;;1.50;;
68866;SDS011;56451;44.804;20.476;2023-08-06T11:35:37;2.55;;;1.75;;
68866;SDS011;56451;44.804;20.476;2023-08-06T11:38:05;2.15;;;1.27;;
68866;SDS011;56451;44.804;20.476;2023-08-06T11:40:33;2.00;;;1.20;;
68866;SDS011;56451;44.804;20.476;2023-08-06T11:43:01;1.80;;;1.27;;
68866;SDS011;56451;44.804;20.476;2023-08-06T11:45:27;2.23;;;1.27;;
68866;SDS011;56451;44.804;20.476;2023-08-06T11:47:54;2.08;;;1.30;;
68866;SDS011;56451;44.804;20.476;2023-08-06T11:50:22;2.88;;;1.30;;
68866;SDS011;56451;44.804;20.476;2023-08-06T11:52:52;1.85;;;1.27;;
68866;SDS011;56451;44.804;20.476;2023-08-06T11:55:22;2.42;;;1.30;;
68866;SDS011;56451;44.804;20.476;2023-08-06T11:57:50;2.97;;;1.67;;
68866;SDS011;56451;44.804;20.476;2023-08-06T12:00:17;1.40;;;1.30;;
68866;SDS011;56451;44.804;20.476;2023-08-06T12:02:48;2.17;;;1.38;;
68866;SDS011;56451;44.804;20.476;2023-08-06T12:05:29;2.28;;;1.05;;
68866;SDS011;56451;44.804;20.476;2023-08-06T12:07:58;6.20;;;1.85;;
68866;SDS011;56451;44.804;20.476;2023-08-06T12:10:26;1.50;;;1.17;;
68866;SDS011;56451;44.804;20.476;2023-08-06T12:12:53;2.10;;;0.90;;
68866;SDS011;56451;44.804;20.476;2023-08-06T12:15:21;1.30;;;0.90;;
68866;SDS011;56451;44.804;20.476;2023-08-06T12:17:52;1.40;;;0.88;;
68866;SDS011;56451;44.804;20.476;2023-08-06T12:20:18;3.45;;;0.90;;
68866;SDS011;56451;44.804;20.476;2023-08-06T12:22:45;2.53;;;1.07;;
68866;SDS011;56451;44.804;20.476;2023-08-06T12:25:11;3.20;;;1.20;;
68866;SDS011;56451;44.804;20.476;2023-08-06T12:27:38;1.90;;;1.10;;
68866;SDS011;56451;44.804;20.476;2023-08-06T12:30:07;2.22;;;1.23;;
68866;SDS011;56451;44.804;20.476;2023-08-06T12:32:34;1.20;;;0.95;;
68866;SDS011;56451;44.804;20.476;2023-08-06T12:35:00;1.13;;;0.63;;
68866;SDS011;56451;44.804;20.476;2023-08-06T12:37:27;1.35;;;1.00;;
68866;SDS011;56451;44.804;20.476;2023-08-06T12:39:53;2.10;;;0.70;;
68866;SDS011;56451;44.804;20.476;2023-08-06T12:42:19;1.90;;;0.88;;
68866;SDS011;56451;44.804;20.476;2023-08-06T12:44:45;3.35;;;1.08;;
68866;SDS011;56451;44.804;20.476;2023-08-06T12:47:13;1.20;;;0.90;;
68866;SDS011;56451;44.804;20.476;2023-08-06T12:49:39;4.20;;;0.90;;
68866;SDS011;56451;44.804;20.476;2023-08-06T12:52:05;1.50;;;0.98;;
68866;SDS011;56451;44.804;20.476;2023-08-06T12:54:32;2.23;;;1.00;;
68866;SDS011;56451;44.804;20.476;2023-08-06T12:57:02;1.85;;;1.05;;
68866;SDS011;56451;44.804;20.476;2023-08-06T12:59:29;1.80;;;0.90;;
68866;SDS011;56451;44.804;20.476;2023-08-06T13:01:55;2.25;;;1.00;;
68866;SDS011;56451;44.804;20.476;2023-08-06T13:04:21;1.63;;;1.10;;
68866;SDS011;56451;44.804;20.476;2023-08-06T13:06:47;2.10;;;1.10;;
68866;SDS011;56451;44.804;20.476;2023-08-06T13:09:13;3.53;;;1.25;;
68866;SDS011;56451;44.804;20.476;2023-08-06T13:11:41;2.42;;;1.00;;
68866;SDS011;56451;44.804;20.476;2023-08-06T13:14:08;2.13;;;0.90;;
68866;SDS011;56451;44.804;20.476;2023-08-06T13:16:35;1.08;;;0.80;;
68866;SDS011;56451;44.804;20.476;2023-08-06T13:19:02;2.53;;;0.87;;
68866;SDS011;56451;44.804;20.476;2023-08-06T13:21:33;2.92;;;1.00;;
68866;SDS011;56451;44.804;20.476;2023-08-06T13:24:02;3.35;;;1.10;;
68866;SDS011;56451;44.804;20.476;2023-08-06T13:26:28;2.83;;;0.85;;
68866;SDS011;56451;44.804;20.476;2023-08-06T13:28:58;3.10;;;1.10;;
68866;SDS011;56451;44.804;20.476;2023-08-06T13:31:25;2.67;;;1.00;;
68866;SDS011;56451;44.804;20.476;2023-08-06T13:33:52;1.40;;;1.00;;
68866;SDS011;56451;44.804;20.476;2023-08-06T13:36:21;3.70;;;1.50;;
68866;SDS011;56451;44.804;20.476;2023-08-06T13:38:48;2.30;;;1.50;;
68866;SDS011;56451;44.804;20.476;2023-08-06T13:41:14;2.40;;;1.30;;
68866;SDS011;56451;44.804;20.476;2023-08-06T13:43:41;3.83;;;2.30;;
68866;SDS011;56451;44.804;20.476;2023-08-06T13:46:08;3.63;;;2.42;;
68866;SDS011;56451;44.804;20.476;2023-08-06T13:48:34;4.60;;;2.40;;
68866;SDS011;56451;44.804;20.476;2023-08-06T13:51:00;9.20;;;2.65;;
68866;SDS011;56451;44.804;20.476;2023-08-06T13:53:27;4.57;;;2.67;;
68866;SDS011;56451;44.804;20.476;2023-08-06T13:55:56;2.97;;;2.67;;
68866;SDS011;56451;44.804;20.476;2023-08-06T13:58:23;3.35;;;2.60;;
68866;SDS011;56451;44.804;20.476;2023-08-06T14:00:49;3.65;;;2.67;;
68866;SDS011;56451;44.804;20.476;2023-08-06T14:03:18;5.38;;;3.17;;
68866;SDS011;56451;44.804;20.476;2023-08-06T14:05:44;4.70;;;2.67;;
68866;SDS011;56451;44.804;20.476;2023-08-06T14:08:10;3.90;;;1.88;;
68866;SDS011;56451;44.804;20.476;2023-08-06T14:10:36;3.88;;;1.35;;
68866;SDS011;56451;44.804;20.476;2023-08-06T14:13:03;3.65;;;1.70;;
68866;SDS011;56451;44.804;20.476;2023-08-06T14:15:29;4.82;;;1.80;;
68866;SDS011;56451;44.804;20.476;2023-08-06T14:17:54;3.10;;;1.80;;
68866;SDS011;56451;44.804;20.476;2023-08-06T14:20:21;2.25;;;1.35;;
68866;SDS011;56451;44.804;20.476;2023-08-06T14:22:48;2.65;;;1.40;;
68866;SDS011;56451;44.804;20.476;2023-08-06T14:25:14;2.95;;;1.48;;
68866;SDS011;56451;44.804;20.476;2023-08-06T14:27:41;6.30;;;1.87;;
68866;SDS011;56451;44.804;20.476;2023-08-06T14:30:07;2.05;;;1.33;;
68866;SDS011;56451;44.804;20.476;2023-08-06T14:32:33;4.43;;;1.75;;
68866;SDS011;56451;44.804;20.476;2023-08-06T14:35:02;4.13;;;2.03;;
68866;SDS011;56451;44.804;20.476;2023-08-06T14:37:28;4.50;;;1.70;;
68866;SDS011;56451;44.804;20.476;2023-08-06T14:39:54;6.63;;;1.63;;
68866;SDS011;56451;44.804;20.476;2023-08-06T14:42:20;3.53;;;1.60;;
68866;SDS011;56451;44.804;20.476;2023-08-06T14:44:46;5.80;;;1.83;;
68866;SDS011;56451;44.804;20.476;2023-08-06T14:47:13;3.72;;;1.55;;
68866;SDS011;56451;44.804;20.476;2023-08-06T14:49:39;4.70;;;1.50;;